SBOSBO EFL / LGKF
Speedbird OnlineSpeedbird Online EFL / LGKF

Kefallinia Airport
09:59 20.7°C

Location Keffallinia, Greece
Latitude: 38.12009811401367
Longitude: 20.500499725341797
Web Wikipedia
Altitude 18 Meter / 59 Feet
Distance 2,177 KM / 1,353 Miles
from London.
Time Zone UTC +3 hours (Europe/Athens)
Codes IATA: EFL
ICAO: LGKF
Currency £1 equals EUR 1.15
Runways
RunwayLength (m)Surface
142436Asphalt
322436Asphalt
Radio
TypeDescriptionFrequency
A/GRDO563.7
AFISAFIS INFO122.25
Live ATC
METAR LGKF 060550Z 02007KT 9999 FEW020 20/08 Q1024
TAF TAF LGKF 060500Z 0606/0615 VRB03KT 9999 FEW018 TEMPO 0606/0610 05010KT BECMG 0612/0614 34010KT
Weather As Of 06 Oct 2022 09:59
Description Clear sky
Wind 8 km/h from East (69°)
Cloud Cover 9%
Precipitation Rain: none, Snow: none
Sunrise 07:37
Sunset 19:14
Rotations During the last 90 days there were
38 flights from LHR
38 flights to LHR


© 2017-2022 Speedbird Online